Time;durP1;ratioP1;P1;durP2;ratioP2;P2;SDS_P1;SDS_P2;PMS_P1;PMS_P2;Temp;Humidity;BMP_temperature;BMP_pressure;BME280_temperature;BME280_humidity;BME280_pressure;Samples;Min_cycle;Max_cycle;Signal;HPM_P1;HPM_P2
2022/04/11 00:02:17;;;;;;;4.90;3.90;;;;;;;;;;5032179;28;20230;-72
2022/04/11 00:04:46;;;;;;;5.03;4.53;;;;;;;;;;5034096;28;20299;-73
2022/04/11 00:07:14;;;;;;;6.43;4.53;;;;;;;;;;5032444;28;20243;-72
2022/04/11 00:09:44;;;;;;;5.60;4.40;;;;;;;;;;5033194;28;20565;-72
2022/04/11 00:12:12;;;;;;;6.30;4.63;;;;;;;;;;5024387;28;20224;-73
2022/04/11 00:14:41;;;;;;;5.80;4.63;;;;;;;;;;5032540;28;20212;-72
2022/04/11 00:17:09;;;;;;;7.20;4.60;;;;;;;;;;5033141;28;20234;-73
2022/04/11 00:19:37;;;;;;;6.30;4.80;;;;;;;;;;5034153;28;20211;-73
2022/04/11 00:22:06;;;;;;;6.10;4.80;;;;;;;;;;5033013;28;20207;-72
2022/04/11 00:24:34;;;;;;;5.90;4.73;;;;;;;;;;5032846;28;20218;-73
2022/04/11 00:27:04;;;;;;;8.47;5.10;;;;;;;;;;4322611;28;10000813;-72
2022/04/11 00:29:33;;;;;;;7.53;4.93;;;;;;;;;;5029514;28;20215;-73
2022/04/11 00:32:01;;;;;;;6.10;4.43;;;;;;;;;;5025756;28;20227;-72
2022/04/11 00:34:30;;;;;;;6.63;4.43;;;;;;;;;;5029788;28;20238;-73
2022/04/11 00:36:58;;;;;;;6.20;4.40;;;;;;;;;;5017544;28;20263;-73
2022/04/11 00:39:27;;;;;;;5.43;4.60;;;;;;;;;;5010510;28;20587;-73
2022/04/11 00:41:55;;;;;;;4.80;4.30;;;;;;;;;;5022286;28;20213;-72
2022/04/11 00:44:25;;;;;;;6.23;4.77;;;;;;;;;;5026119;28;20211;-72
2022/04/11 00:46:54;;;;;;;8.77;4.83;;;;;;;;;;5021697;28;20234;-72
2022/04/11 00:49:22;;;;;;;6.67;4.30;;;;;;;;;;5029269;28;20215;-73
2022/04/11 00:51:50;;;;;;;7.27;4.30;;;;;;;;;;5029191;28;20212;-73
2022/04/11 00:54:19;;;;;;;5.47;4.20;;;;;;;;;;5029359;28;20282;-73
2022/04/11 00:56:48;;;;;;;4.87;3.83;;;;;;;;;;5023305;28;20228;-72
2022/04/11 00:59:17;;;;;;;6.57;3.80;;;;;;;;;;5025984;28;20578;-73
2022/04/11 01:01:47;;;;;;;7.70;4.47;;;;;;;;;;5029780;28;20206;-72
2022/04/11 01:04:24;;;;;;;4.70;4.13;;;;;;;;;;5029508;28;20207;-72
2022/04/11 01:06:52;;;;;;;5.93;4.70;;;;;;;;;;5024140;28;20282;-72
2022/04/11 01:09:21;;;;;;;5.20;4.67;;;;;;;;;;5030001;28;20208;-73
2022/04/11 01:11:50;;;;;;;7.07;4.93;;;;;;;;;;5023946;28;20207;-72
2022/04/11 01:14:18;;;;;;;6.50;4.73;;;;;;;;;;5021688;28;20231;-72
2022/04/11 01:16:51;;;;;;;6.00;4.50;;;;;;;;;;5025432;28;20291;-73
2022/04/11 01:19:20;;;;;;;4.30;3.80;;;;;;;;;;5018848;28;20229;-72
2022/04/11 01:21:49;;;;;;;4.63;4.00;;;;;;;;;;5025374;28;20256;-73
2022/04/11 01:24:20;;;;;;;4.00;3.60;;;;;;;;;;5025512;28;20264;-72
2022/04/11 01:26:49;;;;;;;4.87;4.23;;;;;;;;;;5019035;28;20969;-72
2022/04/11 01:29:18;;;;;;;6.47;4.40;;;;;;;;;;5026228;28;20671;-73
2022/04/11 01:31:47;;;;;;;8.13;4.90;;;;;;;;;;5031654;28;20929;-73
2022/04/11 01:34:15;;;;;;;5.93;4.47;;;;;;;;;;5026628;28;20358;-73
2022/04/11 01:36:44;;;;;;;8.97;4.30;;;;;;;;;;5022955;28;20235;-73
2022/04/11 01:39:13;;;;;;;5.27;4.60;;;;;;;;;;5023974;28;20682;-72
2022/04/11 01:41:42;;;;;;;4.90;4.20;;;;;;;;;;5029657;28;20769;-71
2022/04/11 01:44:10;;;;;;;6.13;4.17;;;;;;;;;;5026398;28;20203;-72
2022/04/11 01:46:39;;;;;;;6.30;4.13;;;;;;;;;;5027275;28;20288;-72
2022/04/11 01:49:07;;;;;;;5.67;3.87;;;;;;;;;;5021299;28;20621;-72
2022/04/11 01:51:35;;;;;;;5.20;3.60;;;;;;;;;;5026758;28;20203;-72
2022/04/11 01:54:04;;;;;;;6.13;4.30;;;;;;;;;;5030445;28;20234;-72
2022/04/11 01:56:34;;;;;;;7.43;4.30;;;;;;;;;;5027798;28;20734;-72
2022/04/11 01:59:02;;;;;;;6.23;4.30;;;;;;;;;;5023286;28;20210;-73
2022/04/11 02:01:30;;;;;;;8.20;4.20;;;;;;;;;;5026100;28;20261;-73
2022/04/11 02:03:59;;;;;;;5.30;4.13;;;;;;;;;;5031979;28;20316;-72
2022/04/11 02:06:27;;;;;;;6.80;4.53;;;;;;;;;;5027759;28;20266;-72
2022/04/11 02:08:56;;;;;;;4.97;4.47;;;;;;;;;;5026443;28;20696;-73
2022/04/11 02:11:24;;;;;;;7.77;4.43;;;;;;;;;;5029409;28;20213;-73
2022/04/11 02:13:55;;;;;;;4.47;3.93;;;;;;;;;;5028216;28;20230;-72
2022/04/11 02:16:23;;;;;;;6.70;4.87;;;;;;;;;;5032610;28;20550;-73
2022/04/11 02:18:52;;;;;;;7.30;4.83;;;;;;;;;;5024609;28;20242;-73
2022/04/11 02:21:20;;;;;;;6.63;4.73;;;;;;;;;;5016368;28;20281;-72
2022/04/11 02:23:49;;;;;;;5.57;4.40;;;;;;;;;;5028935;28;20256;-72
2022/04/11 02:26:17;;;;;;;4.83;4.37;;;;;;;;;;5029883;28;20210;-73
2022/04/11 02:28:45;;;;;;;5.87;4.60;;;;;;;;;;5030597;28;20207;-73
2022/04/11 02:31:15;;;;;;;7.07;4.97;;;;;;;;;;5031704;28;20211;-72
2022/04/11 02:33:44;;;;;;;6.00;4.90;;;;;;;;;;5028969;28;20230;-72
2022/04/11 02:36:12;;;;;;;6.57;4.63;;;;;;;;;;5024732;28;20210;-72
2022/04/11 02:38:40;;;;;;;5.47;4.27;;;;;;;;;;5017827;28;20711;-72
2022/04/11 02:41:09;;;;;;;5.83;4.77;;;;;;;;;;5018708;28;20253;-72
2022/04/11 02:43:37;;;;;;;6.37;4.60;;;;;;;;;;5026222;28;20212;-71
2022/04/11 02:46:06;;;;;;;6.47;4.60;;;;;;;;;;5019439;28;20261;-74
2022/04/11 02:48:36;;;;;;;8.53;5.07;;;;;;;;;;5029548;28;20230;-72
2022/04/11 02:51:04;;;;;;;6.13;4.83;;;;;;;;;;5022070;28;20203;-73
2022/04/11 02:53:33;;;;;;;8.40;5.23;;;;;;;;;;5024940;28;20241;-73
2022/04/11 02:56:01;;;;;;;5.63;4.93;;;;;;;;;;5029899;28;20288;-72
2022/04/11 02:58:29;;;;;;;7.53;5.20;;;;;;;;;;5022607;28;20233;-72
2022/04/11 03:00:58;;;;;;;8.80;5.93;;;;;;;;;;5012303;28;20273;-73
2022/04/11 03:03:27;;;;;;;8.47;5.37;;;;;;;;;;5012238;28;20231;-72
2022/04/11 03:05:56;;;;;;;8.33;5.50;;;;;;;;;;5027870;28;20245;-72
2022/04/11 03:08:25;;;;;;;5.90;4.80;;;;;;;;;;5027287;28;20227;-72
2022/04/11 03:10:54;;;;;;;6.63;4.63;;;;;;;;;;5020650;28;20911;-72
2022/04/11 03:13:23;;;;;;;6.03;5.03;;;;;;;;;;5021925;28;20234;-72
2022/04/11 03:15:52;;;;;;;4.97;4.47;;;;;;;;;;5031830;28;20250;-72
2022/04/11 03:18:20;;;;;;;6.63;5.40;;;;;;;;;;5030081;28;20234;-72
2022/04/11 03:20:48;;;;;;;5.57;4.90;;;;;;;;;;5032038;28;20206;-72
2022/04/11 03:23:18;;;;;;;5.43;4.60;;;;;;;;;;5022078;28;20219;-72
2022/04/11 03:25:47;;;;;;;6.23;4.80;;;;;;;;;;5028256;28;20213;-72
2022/04/11 03:28:15;;;;;;;6.13;4.80;;;;;;;;;;5024689;28;20338;-72
2022/04/11 03:30:43;;;;;;;5.53;4.83;;;;;;;;;;5031702;28;20264;-72
2022/04/11 03:33:12;;;;;;;4.83;4.37;;;;;;;;;;5032233;28;20210;-73
2022/04/11 03:35:41;;;;;;;6.70;5.13;;;;;;;;;;5030828;28;20206;-72
2022/04/11 03:38:09;;;;;;;6.93;6.23;;;;;;;;;;5030819;28;20229;-72
2022/04/11 03:40:39;;;;;;;6.20;5.60;;;;;;;;;;5031333;28;20214;-72
2022/04/11 03:43:07;;;;;;;8.10;5.50;;;;;;;;;;5031639;28;20203;-72
2022/04/11 03:45:36;;;;;;;5.70;5.13;;;;;;;;;;5027787;28;20211;-71
2022/04/11 03:48:04;;;;;;;5.80;5.27;;;;;;;;;;5021780;28;20224;-73
2022/04/11 03:50:33;;;;;;;7.20;5.07;;;;;;;;;;5019257;28;20667;-72
2022/04/11 03:53:01;;;;;;;7.53;4.93;;;;;;;;;;5030815;28;20214;-73
2022/04/11 03:55:30;;;;;;;7.53;5.00;;;;;;;;;;5026886;28;20234;-72
2022/04/11 03:58:02;;;;;;;5.20;4.70;;;;;;;;;;5031547;28;20231;-73
2022/04/11 04:00:30;;;;;;;5.33;4.83;;;;;;;;;;5029890;28;20217;-71
2022/04/11 04:03:06;;;;;;;5.20;4.70;;;;;;;;;;5031099;28;20205;-71
2022/04/11 04:05:34;;;;;;;5.90;4.60;;;;;;;;;;5031119;28;20260;-73
2022/04/11 04:08:03;;;;;;;6.00;4.70;;;;;;;;;;5025259;28;20275;-71
2022/04/11 04:10:31;;;;;;;5.77;4.70;;;;;;;;;;5015275;28;20266;-73
2022/04/11 04:13:01;;;;;;;6.60;4.70;;;;;;;;;;5030964;28;20635;-73
2022/04/11 04:15:30;;;;;;;6.80;4.80;;;;;;;;;;5030724;28;20753;-73
2022/04/11 04:17:58;;;;;;;6.33;5.03;;;;;;;;;;5029928;28;20719;-73
2022/04/11 04:20:27;;;;;;;5.83;4.43;;;;;;;;;;5013999;28;20223;-73
2022/04/11 04:22:55;;;;;;;6.77;4.40;;;;;;;;;;5030535;28;20258;-73
2022/04/11 04:25:28;;;;;;;4.87;4.40;;;;;;;;;;5028090;28;20608;-73
2022/04/11 04:27:57;;;;;;;6.77;4.87;;;;;;;;;;5032886;28;20240;-73
2022/04/11 04:30:28;;;;;;;5.97;4.60;;;;;;;;;;5031819;28;20209;-73
2022/04/11 04:32:57;;;;;;;7.73;5.20;;;;;;;;;;5031612;28;20561;-73
2022/04/11 04:35:26;;;;;;;4.97;4.47;;;;;;;;;;5032482;28;20337;-73
2022/04/11 04:37:54;;;;;;;7.17;5.33;;;;;;;;;;5032904;28;20235;-73
2022/04/11 04:40:23;;;;;;;6.10;5.13;;;;;;;;;;5032889;28;20213;-73
2022/04/11 04:42:52;;;;;;;5.90;4.33;;;;;;;;;;5031983;28;20256;-73
2022/04/11 04:45:20;;;;;;;5.47;4.90;;;;;;;;;;5031692;28;20726;-73
2022/04/11 04:47:50;;;;;;;5.47;4.90;;;;;;;;;;5028380;28;20699;-73
2022/04/11 04:50:18;;;;;;;5.90;4.77;;;;;;;;;;5027728;28;20330;-73
2022/04/11 04:52:47;;;;;;;6.57;5.10;;;;;;;;;;5026105;28;20201;-73
2022/04/11 04:55:15;;;;;;;6.47;5.47;;;;;;;;;;5017240;28;20225;-73
2022/04/11 04:57:43;;;;;;;6.00;4.70;;;;;;;;;;5015414;28;20221;-73
2022/04/11 05:00:12;;;;;;;7.00;5.07;;;;;;;;;;5023652;28;20213;-73
2022/04/11 05:02:42;;;;;;;6.77;5.10;;;;;;;;;;5032948;28;20207;-73
2022/04/11 05:05:13;;;;;;;7.17;5.13;;;;;;;;;;5031334;28;20205;-73
2022/04/11 05:07:41;;;;;;;6.70;5.30;;;;;;;;;;5030917;28;20224;-73
2022/04/11 05:10:16;;;;;;;6.17;5.10;;;;;;;;;;5031413;28;20197;-73
2022/04/11 05:12:45;;;;;;;7.73;5.40;;;;;;;;;;5030320;28;20206;-73
2022/04/11 05:15:15;;;;;;;6.73;4.97;;;;;;;;;;5022249;28;20263;-73
2022/04/11 05:17:43;;;;;;;6.57;5.30;;;;;;;;;;5028719;28;20225;-73
2022/04/11 05:20:13;;;;;;;6.10;5.33;;;;;;;;;;5032322;28;20674;-73
2022/04/11 05:22:41;;;;;;;7.47;5.80;;;;;;;;;;5029536;28;20628;-73
2022/04/11 05:25:10;;;;;;;7.53;5.97;;;;;;;;;;5030709;28;20259;-74
2022/04/11 05:27:38;;;;;;;7.27;6.00;;;;;;;;;;5031384;28;20226;-74
2022/04/11 05:30:08;;;;;;;6.63;5.50;;;;;;;;;;5031828;28;20213;-74
2022/04/11 05:32:36;;;;;;;8.53;5.70;;;;;;;;;;5030248;28;20247;-74
2022/04/11 05:35:05;;;;;;;7.07;6.00;;;;;;;;;;5030066;28;20225;-73
2022/04/11 05:37:34;;;;;;;6.97;4.97;;;;;;;;;;5032435;28;20226;-75
2022/04/11 05:40:03;;;;;;;6.67;5.97;;;;;;;;;;5033088;28;20263;-75
2022/04/11 05:42:32;;;;;;;6.60;5.47;;;;;;;;;;5028103;28;20206;-75
2022/04/11 05:45:00;;;;;;;10.67;5.50;;;;;;;;;;5026574;28;20251;-74
2022/04/11 05:47:29;;;;;;;8.07;5.83;;;;;;;;;;5019412;28;20250;-74
2022/04/11 05:49:57;;;;;;;7.00;5.87;;;;;;;;;;5024897;28;20210;-75
2022/04/11 05:52:25;;;;;;;7.77;5.63;;;;;;;;;;5029478;28;20202;-75
2022/04/11 05:54:55;;;;;;;7.20;5.60;;;;;;;;;;5030749;28;20221;-75
2022/04/11 05:57:24;;;;;;;6.40;5.40;;;;;;;;;;5030598;28;20686;-75
2022/04/11 05:59:52;;;;;;;8.27;5.97;;;;;;;;;;5032055;28;20731;-75
2022/04/11 06:02:20;;;;;;;6.70;6.00;;;;;;;;;;5024307;28;20257;-75
2022/04/11 06:04:49;;;;;;;8.50;5.53;;;;;;;;;;5031577;28;20216;-75
2022/04/11 06:07:20;;;;;;;6.57;5.87;;;;;;;;;;5021805;28;20598;-75
2022/04/11 06:09:49;;;;;;;9.30;5.90;;;;;;;;;;5027254;28;20216;-75
2022/04/11 06:12:20;;;;;;;9.83;6.33;;;;;;;;;;5022680;28;20206;-74
2022/04/11 06:14:49;;;;;;;6.67;6.07;;;;;;;;;;5032257;28;20268;-75
2022/04/11 06:17:17;;;;;;;6.90;6.07;;;;;;;;;;5019980;28;20231;-75
2022/04/11 06:19:45;;;;;;;7.43;6.20;;;;;;;;;;5016578;28;20214;-75
2022/04/11 06:22:14;;;;;;;7.77;6.00;;;;;;;;;;5020343;28;20269;-75
2022/04/11 06:24:44;;;;;;;7.10;6.40;;;;;;;;;;5034749;28;20257;-76
2022/04/11 06:27:12;;;;;;;9.53;6.33;;;;;;;;;;5029178;28;20233;-76
2022/04/11 06:29:42;;;;;;;8.77;6.70;;;;;;;;;;5022866;28;20624;-76
2022/04/11 06:32:11;;;;;;;7.10;6.40;;;;;;;;;;5033111;28;20204;-77
2022/04/11 06:34:40;;;;;;;8.43;7.27;;;;;;;;;;5033936;28;20619;-76
2022/04/11 06:37:08;;;;;;;9.33;8.27;;;;;;;;;;5026366;28;20324;-76
2022/04/11 06:39:37;;;;;;;9.07;7.20;;;;;;;;;;5044323;28;20207;-76
2022/04/11 06:42:07;;;;;;;11.20;8.10;;;;;;;;;;5025880;28;20203;-75
2022/04/11 06:44:37;;;;;;;10.83;8.20;;;;;;;;;;5033350;28;20203;-76
2022/04/11 06:47:08;;;;;;;9.23;8.20;;;;;;;;;;5023433;28;20213;-76
2022/04/11 06:49:37;;;;;;;9.40;7.70;;;;;;;;;;5027223;28;20222;-76
2022/04/11 06:52:06;;;;;;;9.93;7.73;;;;;;;;;;5034379;28;20246;-76
2022/04/11 06:54:34;;;;;;;8.67;7.53;;;;;;;;;;5033230;28;20243;-76
2022/04/11 06:57:03;;;;;;;7.47;6.10;;;;;;;;;;5030903;28;20232;-75
2022/04/11 06:59:31;;;;;;;7.80;5.60;;;;;;;;;;5028628;28;20213;-76
2022/04/11 07:02:00;;;;;;;7.07;4.60;;;;;;;;;;5016401;28;20201;-76
2022/04/11 07:04:30;;;;;;;5.97;3.97;;;;;;;;;;5015467;28;20213;-76
2022/04/11 07:06:59;;;;;;;4.50;4.10;;;;;;;;;;5020413;28;20242;-76
2022/04/11 07:09:28;;;;;;;4.17;3.73;;;;;;;;;;5034685;28;20218;-76
2022/04/11 07:11:57;;;;;;;5.57;3.87;;;;;;;;;;5026981;28;20266;-76
2022/04/11 07:14:26;;;;;;;4.90;3.70;;;;;;;;;;5022827;28;20577;-76
2022/04/11 07:16:55;;;;;;;6.57;3.83;;;;;;;;;;5035167;28;20235;-75
2022/04/11 07:19:23;;;;;;;5.10;3.77;;;;;;;;;;5034974;28;20550;-75
2022/04/11 07:21:53;;;;;;;4.13;3.73;;;;;;;;;;5034664;28;20266;-75
2022/04/11 07:24:21;;;;;;;6.13;3.50;;;;;;;;;;5032746;28;20234;-75
2022/04/11 07:26:50;;;;;;;4.00;3.07;;;;;;;;;;5033453;28;20611;-75
2022/04/11 07:29:19;;;;;;;4.57;3.70;;;;;;;;;;5016691;28;20207;-75
2022/04/11 07:31:47;;;;;;;4.57;3.40;;;;;;;;;;5015094;28;20208;-75
2022/04/11 07:34:16;;;;;;;5.10;3.53;;;;;;;;;;5014802;28;20208;-75
2022/04/11 07:36:44;;;;;;;4.50;3.53;;;;;;;;;;5032677;28;20302;-75
2022/04/11 07:39:15;;;;;;;5.47;3.33;;;;;;;;;;5034745;28;20207;-75
2022/04/11 07:41:43;;;;;;;4.83;3.30;;;;;;;;;;5033043;28;20220;-75
2022/04/11 07:44:11;;;;;;;3.50;3.00;;;;;;;;;;5033474;28;20200;-75
2022/04/11 07:46:40;;;;;;;3.93;3.53;;;;;;;;;;5030396;28;20270;-75
2022/04/11 07:49:09;;;;;;;4.20;3.40;;;;;;;;;;5034845;28;20725;-75
2022/04/11 07:51:37;;;;;;;4.53;3.20;;;;;;;;;;5019737;28;20291;-75
2022/04/11 07:54:06;;;;;;;4.53;3.63;;;;;;;;;;5021657;28;20208;-75
2022/04/11 07:56:36;;;;;;;4.73;3.30;;;;;;;;;;5025819;28;20635;-75
2022/04/11 07:59:04;;;;;;;4.20;3.43;;;;;;;;;;5029341;28;20232;-75
2022/04/11 08:01:33;;;;;;;5.17;3.53;;;;;;;;;;5033258;28;20212;-75
2022/04/11 08:04:02;;;;;;;5.03;3.20;;;;;;;;;;5032744;28;20258;-75
2022/04/11 08:06:30;;;;;;;3.97;3.50;;;;;;;;;;5030647;28;20204;-75
2022/04/11 08:08:59;;;;;;;7.10;3.57;;;;;;;;;;5030147;28;20257;-74
2022/04/11 08:11:27;;;;;;;5.07;3.83;;;;;;;;;;5030423;28;20212;-75
2022/04/11 08:13:57;;;;;;;5.63;3.70;;;;;;;;;;5032510;28;20258;-74
2022/04/11 08:16:25;;;;;;;4.47;3.40;;;;;;;;;;5032992;28;20714;-75
2022/04/11 08:18:54;;;;;;;4.03;3.60;;;;;;;;;;5031362;28;20200;-74
2022/04/11 08:21:22;;;;;;;4.67;3.20;;;;;;;;;;5031210;28;20208;-75
2022/04/11 08:23:51;;;;;;;4.00;3.63;;;;;;;;;;5026785;28;20273;-74
2022/04/11 08:26:19;;;;;;;5.30;3.70;;;;;;;;;;5017204;28;20201;-74
2022/04/11 08:28:47;;;;;;;5.10;3.67;;;;;;;;;;5033686;28;20208;-73
2022/04/11 08:31:17;;;;;;;6.70;3.73;;;;;;;;;;5032477;28;20199;-73
2022/04/11 08:33:47;;;;;;;3.77;3.17;;;;;;;;;;5027640;28;20204;-73
2022/04/11 08:36:15;;;;;;;5.20;3.70;;;;;;;;;;5027648;28;20258;-74
2022/04/11 08:38:44;;;;;;;4.13;3.33;;;;;;;;;;5027531;28;20216;-73
2022/04/11 08:41:18;;;;;;;7.90;3.70;;;;;;;;;;5028779;28;20262;-74
2022/04/11 08:43:47;;;;;;;4.73;3.50;;;;;;;;;;5026578;28;20291;-74
2022/04/11 08:46:18;;;;;;;5.63;3.77;;;;;;;;;;5023172;28;20200;-73
2022/04/11 08:48:47;;;;;;;5.80;3.80;;;;;;;;;;5014712;28;20209;-73
2022/04/11 08:51:16;;;;;;;4.90;4.00;;;;;;;;;;5028878;28;20600;-73
2022/04/11 08:53:44;;;;;;;5.27;3.70;;;;;;;;;;5019739;28;20209;-73
2022/04/11 08:56:13;;;;;;;4.03;3.60;;;;;;;;;;5017748;28;20211;-73
2022/04/11 08:58:41;;;;;;;6.37;3.70;;;;;;;;;;5032462;28;20203;-73
2022/04/11 09:01:09;;;;;;;5.27;3.50;;;;;;;;;;5026581;28;20199;-74
2022/04/11 09:03:39;;;;;;;5.33;3.73;;;;;;;;;;5021544;28;20208;-73
2022/04/11 09:06:09;;;;;;;4.60;3.87;;;;;;;;;;5030019;28;20208;-73
2022/04/11 09:08:41;;;;;;;5.20;3.30;;;;;;;;;;5016493;28;20219;-73
2022/04/11 09:11:10;;;;;;;5.37;3.43;;;;;;;;;;5025428;28;20199;-73
2022/04/11 09:13:48;;;;;;;4.97;3.50;;;;;;;;;;5030903;28;20207;-73
2022/04/11 09:16:17;;;;;;;6.13;3.40;;;;;;;;;;5013849;28;20206;-74
2022/04/11 09:18:52;;;;;;;4.90;3.67;;;;;;;;;;5026151;28;20223;-73
2022/04/11 09:21:20;;;;;;;5.13;3.43;;;;;;;;;;5033166;28;20682;-73
2022/04/11 09:23:49;;;;;;;4.07;3.23;;;;;;;;;;5033171;28;20257;-74
2022/04/11 09:26:18;;;;;;;5.30;3.40;;;;;;;;;;5032757;28;20667;-74
2022/04/11 09:28:59;;;;;;;4.00;3.40;;;;;;;;;;5027771;28;20196;-73
2022/04/11 09:31:28;;;;;;;7.13;3.60;;;;;;;;;;5014674;28;20204;-73
2022/04/11 09:33:58;;;;;;;5.47;3.57;;;;;;;;;;5032848;28;20790;-73
2022/04/11 09:36:45;;;;;;;5.40;3.60;;;;;;;;;;5032915;28;20306;-73
2022/04/11 09:39:27;;;;;;;5.03;3.40;;;;;;;;;;5032647;28;20202;-74
2022/04/11 09:42:03;;;;;;;4.97;3.30;;;;;;;;;;5032969;28;20817;-73
2022/04/11 09:44:32;;;;;;;4.33;3.50;;;;;;;;;;5032112;28;20295;-74
2022/04/11 09:47:02;;;;;;;4.23;3.30;;;;;;;;;;5031838;28;20772;-74
2022/04/11 09:49:31;;;;;;;5.73;3.57;;;;;;;;;;5032071;28;20214;-73
2022/04/11 09:52:03;;;;;;;5.00;3.40;;;;;;;;;;5036219;28;20203;-73
2022/04/11 09:54:32;;;;;;;4.70;3.67;;;;;;;;;;5036495;28;20215;-73
2022/04/11 09:57:01;;;;;;;5.50;3.50;;;;;;;;;;5032479;28;20223;-73
2022/04/11 09:59:30;;;;;;;4.57;3.73;;;;;;;;;;5019770;28;20201;-73
2022/04/11 10:02:18;;;;;;;4.77;3.67;;;;;;;;;;5036822;28;20242;-73
2022/04/11 10:04:48;;;;;;;4.70;3.57;;;;;;;;;;5036420;28;20239;-73
2022/04/11 10:07:17;;;;;;;5.67;4.57;;;;;;;;;;5036508;28;20580;-72
2022/04/11 10:09:46;;;;;;;5.07;3.97;;;;;;;;;;5036350;28;20208;-73
2022/04/11 10:12:15;;;;;;;5.80;3.93;;;;;;;;;;5027822;28;20258;-73
2022/04/11 10:14:43;;;;;;;6.03;4.43;;;;;;;;;;5030900;28;20651;-73
2022/04/11 10:17:12;;;;;;;7.03;5.47;;;;;;;;;;5035407;28;20223;-73
2022/04/11 10:19:42;;;;;;;6.07;5.23;;;;;;;;;;5030053;28;20204;-73
2022/04/11 10:22:16;;;;;;;8.17;5.27;;;;;;;;;;5035747;28;20286;-73
2022/04/11 10:24:47;;;;;;;6.67;5.47;;;;;;;;;;5029345;28;20207;-73
2022/04/11 10:27:18;;;;;;;5.87;5.27;;;;;;;;;;5023537;28;20224;-72
2022/04/11 10:29:48;;;;;;;7.17;5.43;;;;;;;;;;5033970;28;20262;-72
2022/04/11 10:32:18;;;;;;;5.70;5.10;;;;;;;;;;5035477;28;20208;-72
2022/04/11 10:34:56;;;;;;;8.63;7.70;;;;;;;;;;5035011;28;20626;-73
2022/04/11 10:37:26;;;;;;;7.53;6.70;;;;;;;;;;5035245;28;20278;-72
2022/04/11 10:39:55;;;;;;;10.93;6.63;;;;;;;;;;5033548;28;20257;-73
2022/04/11 10:42:25;;;;;;;7.47;5.90;;;;;;;;;;5026326;28;20568;-73
2022/04/11 10:44:56;;;;;;;10.10;6.18;;;;;;;;;;5033610;28;20199;-73
2022/04/11 10:47:31;;;;;;;10.05;6.35;;;;;;;;;;5032633;28;20219;-73
2022/04/11 10:50:19;;;;;;;9.93;7.30;;;;;;;;;;5017813;28;20231;-73
2022/04/11 10:52:52;;;;;;;8.65;6.53;;;;;;;;;;5032209;28;20204;-74
2022/04/11 10:55:23;;;;;;;8.27;6.93;;;;;;;;;;5032745;28;20219;-73
2022/04/11 10:57:52;;;;;;;7.40;6.60;;;;;;;;;;5030959;28;20224;-73
2022/04/11 11:00:23;;;;;;;8.23;6.77;;;;;;;;;;5027254;28;20200;-74
2022/04/11 11:03:05;;;;;;;8.17;6.77;;;;;;;;;;4674960;28;9999680;-73
2022/04/11 11:05:35;;;;;;;7.87;6.97;;;;;;;;;;5029457;28;20200;-73
2022/04/11 11:08:27;;;;;;;7.40;6.53;;;;;;;;;;5032367;28;20220;-73
2022/04/11 11:10:56;;;;;;;6.90;6.30;;;;;;;;;;5020564;28;20214;-74
2022/04/11 11:13:26;;;;;;;7.40;6.13;;;;;;;;;;5020861;28;20208;-73
2022/04/11 11:15:55;;;;;;;7.90;7.05;;;;;;;;;;5035090;28;20254;-73
2022/04/11 11:18:24;;;;;;;7.25;6.43;;;;;;;;;;5032650;28;20231;-73
2022/04/11 11:20:54;;;;;;;7.97;6.20;;;;;;;;;;5034642;28;20270;-74
2022/04/11 11:23:25;;;;;;;8.27;6.50;;;;;;;;;;5033619;28;20226;-74
2022/04/11 11:25:56;;;;;;;7.27;6.23;;;;;;;;;;5030821;28;20208;-74
2022/04/11 11:28:30;;;;;;;6.73;6.03;;;;;;;;;;5024799;28;20311;-73
2022/04/11 11:30:58;;;;;;;8.87;6.67;;;;;;;;;;5029677;28;20258;-73
2022/04/11 11:33:27;;;;;;;6.20;5.53;;;;;;;;;;5032743;28;20203;-73
2022/04/11 11:35:57;;;;;;;7.78;6.18;;;;;;;;;;5034015;28;20215;-74
2022/04/11 11:38:26;;;;;;;6.90;6.20;;;;;;;;;;5034148;28;20737;-74
2022/04/11 11:40:57;;;;;;;8.40;6.53;;;;;;;;;;5030605;28;20227;-73
2022/04/11 11:43:26;;;;;;;6.88;6.20;;;;;;;;;;5029654;28;20204;-73
2022/04/11 11:45:58;;;;;;;6.38;5.78;;;;;;;;;;5032304;28;20274;-73
2022/04/11 11:48:28;;;;;;;6.82;6.00;;;;;;;;;;5026939;28;20252;-74
2022/04/11 11:50:57;;;;;;;7.30;5.57;;;;;;;;;;5029157;28;20575;-73
2022/04/11 11:53:27;;;;;;;6.53;5.53;;;;;;;;;;5028567;28;20207;-74
2022/04/11 11:55:57;;;;;;;6.20;5.57;;;;;;;;;;5015309;28;20212;-73
2022/04/11 11:58:35;;;;;;;6.28;5.68;;;;;;;;;;5031753;28;20227;-73
2022/04/11 12:01:06;;;;;;;8.50;6.03;;;;;;;;;;5016630;28;20208;-73
2022/04/11 12:06:27;;;;;;;7.00;6.32;;;;;;;;;;5007346;28;20657;-73
2022/04/11 12:08:56;;;;;;;8.32;6.35;;;;;;;;;;5054325;28;20210;-73
2022/04/11 12:11:29;;;;;;;8.75;6.40;;;;;;;;;;5037766;28;20291;-73
2022/04/11 12:14:01;;;;;;;6.88;6.28;;;;;;;;;;5033840;28;20204;-73
2022/04/11 12:16:30;;;;;;;7.63;6.75;;;;;;;;;;5033780;28;20216;-73
2022/04/11 12:19:00;;;;;;;7.15;6.45;;;;;;;;;;5030714;28;20594;-74
2022/04/11 12:21:32;;;;;;;7.72;5.95;;;;;;;;;;5028051;28;20204;-73
2022/04/11 12:24:01;;;;;;;9.60;6.57;;;;;;;;;;5025594;28;20233;-73
2022/04/11 12:26:32;;;;;;;8.45;6.35;;;;;;;;;;5027209;28;20212;-72
2022/04/11 12:29:02;;;;;;;8.25;6.30;;;;;;;;;;5027328;28;20202;-73
2022/04/11 12:31:31;;;;;;;7.05;6.35;;;;;;;;;;5021761;28;20204;-73
2022/04/11 12:34:10;;;;;;;7.00;5.93;;;;;;;;;;5016788;28;20235;-73
2022/04/11 12:36:58;;;;;;;8.15;6.18;;;;;;;;;;5019959;28;20224;-73
2022/04/11 12:39:27;;;;;;;7.20;6.50;;;;;;;;;;5031977;28;20220;-72
2022/04/11 12:41:57;;;;;;;7.10;6.25;;;;;;;;;;5030770;28;20204;-72
2022/04/11 12:44:34;;;;;;;8.80;6.65;;;;;;;;;;5023560;28;20212;-72
2022/04/11 12:47:06;;;;;;;7.47;6.65;;;;;;;;;;5026051;28;20230;-72
2022/04/11 12:49:44;;;;;;;8.27;6.53;;;;;;;;;;5024448;28;20200;-72
2022/04/11 12:52:13;;;;;;;8.00;7.13;;;;;;;;;;5025075;28;20307;-72
2022/04/11 12:54:43;;;;;;;6.78;5.88;;;;;;;;;;5027344;28;20250;-72
2022/04/11 12:57:14;;;;;;;7.35;6.65;;;;;;;;;;5029044;28;20232;-72
2022/04/11 12:59:47;;;;;;;7.55;6.78;;;;;;;;;;5020813;28;21983;-71
2022/04/11 13:02:16;;;;;;;7.38;6.65;;;;;;;;;;5023168;28;20213;-72
2022/04/11 13:04:49;;;;;;;8.73;6.60;;;;;;;;;;5031539;28;20206;-72
2022/04/11 13:07:17;;;;;;;8.13;6.75;;;;;;;;;;5022676;28;20219;-73
2022/04/11 13:09:46;;;;;;;7.18;6.47;;;;;;;;;;5024071;28;20208;-73
2022/04/11 13:12:17;;;;;;;8.65;7.53;;;;;;;;;;5020143;28;20611;-72
2022/04/11 13:14:47;;;;;;;7.65;6.93;;;;;;;;;;5021769;28;20691;-73
2022/04/11 13:20:23;;;;;;;7.78;6.45;;;;;;;;;;5027223;28;20721;-72
2022/04/11 13:22:51;;;;;;;8.20;6.97;;;;;;;;;;5032385;28;20227;-72
2022/04/11 13:25:19;;;;;;;8.25;6.75;;;;;;;;;;5018791;28;20205;-72
2022/04/11 13:28:10;;;;;;;7.40;6.60;;;;;;;;;;5029906;28;20227;-72
2022/04/11 13:30:38;;;;;;;7.13;6.43;;;;;;;;;;5023036;28;20682;-73
2022/04/11 13:33:08;;;;;;;8.27;6.22;;;;;;;;;;5035292;28;20249;-73
2022/04/11 13:35:37;;;;;;;8.10;6.43;;;;;;;;;;5016507;28;20279;-72
2022/04/11 13:38:10;;;;;;;7.20;6.50;;;;;;;;;;5025352;28;20230;-73
2022/04/11 13:40:39;;;;;;;7.47;6.43;;;;;;;;;;5030413;28;20710;-72
2022/04/11 13:43:08;;;;;;;6.82;6.20;;;;;;;;;;5025558;28;20624;-71
2022/04/11 13:45:42;;;;;;;8.18;6.32;;;;;;;;;;5017488;28;20287;-72
2022/04/11 13:48:11;;;;;;;8.27;6.75;;;;;;;;;;5028363;28;20212;-72
2022/04/11 13:50:40;;;;;;;7.28;6.57;;;;;;;;;;5017377;28;20208;-72
2022/04/11 13:53:09;;;;;;;6.70;5.80;;;;;;;;;;5028208;28;20234;-73
2022/04/11 13:55:40;;;;;;;8.40;6.10;;;;;;;;;;5021071;28;20212;-73
2022/04/11 13:58:12;;;;;;;8.18;6.60;;;;;;;;;;5024005;28;20320;-72
2022/04/11 14:00:42;;;;;;;7.20;5.88;;;;;;;;;;5013114;28;20227;-72
2022/04/11 14:03:11;;;;;;;7.05;6.35;;;;;;;;;;5029294;28;20230;-73
2022/04/11 14:05:40;;;;;;;7.22;6.20;;;;;;;;;;5030273;28;20265;-73
2022/04/11 14:08:09;;;;;;;8.13;5.80;;;;;;;;;;5025632;28;20749;-73
2022/04/11 14:10:38;;;;;;;7.95;6.55;;;;;;;;;;5016636;28;20723;-73
2022/04/11 14:13:06;;;;;;;6.68;5.65;;;;;;;;;;5027585;28;20314;-73
2022/04/11 14:15:35;;;;;;;7.45;5.30;;;;;;;;;;5019171;28;20197;-73
2022/04/11 14:18:05;;;;;;;6.47;5.68;;;;;;;;;;5025957;28;20224;-72
2022/04/11 14:20:34;;;;;;;5.50;4.97;;;;;;;;;;5030856;28;20286;-73
2022/04/11 14:23:02;;;;;;;7.45;5.10;;;;;;;;;;5028924;28;20730;-73
2022/04/11 14:25:31;;;;;;;5.45;4.90;;;;;;;;;;5032900;28;20258;-73
2022/04/11 14:28:07;;;;;;;5.95;4.78;;;;;;;;;;5014883;28;20223;-72
2022/04/11 14:30:39;;;;;;;6.32;4.97;;;;;;;;;;5024483;28;20200;-72
2022/04/11 14:33:09;;;;;;;6.10;5.15;;;;;;;;;;5015017;28;20204;-73
2022/04/11 14:35:39;;;;;;;5.35;4.82;;;;;;;;;;5025931;28;20258;-73
2022/04/11 14:38:08;;;;;;;7.22;4.72;;;;;;;;;;5026853;28;20216;-73
2022/04/11 14:40:37;;;;;;;6.72;5.07;;;;;;;;;;5024769;28;20220;-72
2022/04/11 14:43:06;;;;;;;6.53;4.70;;;;;;;;;;5030972;28;20208;-72
2022/04/11 14:45:35;;;;;;;7.07;4.50;;;;;;;;;;5019047;28;20246;-73
2022/04/11 14:48:15;;;;;;;5.60;4.97;;;;;;;;;;5015438;28;20216;-72
2022/04/11 14:50:44;;;;;;;5.53;4.55;;;;;;;;;;5025814;28;20200;-72
2022/04/11 14:53:13;;;;;;;5.82;4.95;;;;;;;;;;5031187;28;20269;-73
2022/04/11 14:55:44;;;;;;;6.63;4.53;;;;;;;;;;5023498;28;20211;-73
2022/04/11 14:58:12;;;;;;;6.78;5.05;;;;;;;;;;5034793;28;20465;-73
2022/04/11 15:00:41;;;;;;;5.55;4.50;;;;;;;;;;5032584;28;20220;-72
2022/04/11 15:03:09;;;;;;;5.50;4.40;;;;;;;;;;5030813;28;20239;-72
2022/04/11 15:05:39;;;;;;;6.30;4.43;;;;;;;;;;5035060;28;20199;-73